sensor_id;sensor_type;location;lat;lon;timestamp;pressure;altitude;pressure_sealevel;temperature
82638;BMP280;72318;36.628;-121.932;2024-03-22T00:02:17;101023.94;;;18.43
82638;BMP280;72318;36.628;-121.932;2024-03-22T00:07:18;100976.25;;;18.82
82638;BMP280;72318;36.628;-121.932;2024-03-22T00:12:19;100887.56;;;17.87
82638;BMP280;72318;36.628;-121.932;2024-03-22T00:17:21;100831.94;;;17.91
82638;BMP280;72318;36.628;-121.932;2024-03-22T00:22:22;100855.16;;;19.18
82638;BMP280;72318;36.628;-121.932;2024-03-22T00:27:23;100811.91;;;18.84
82638;BMP280;72318;36.628;-121.932;2024-03-22T00:32:24;100761.00;;;18.52
82638;BMP280;72318;36.628;-121.932;2024-03-22T00:37:25;100802.78;;;18.81
82638;BMP280;72318;36.628;-121.932;2024-03-22T00:42:25;100694.69;;;17.92
82638;BMP280;72318;36.628;-121.932;2024-03-22T00:47:26;100629.66;;;18.17
82638;BMP280;72318;36.628;-121.932;2024-03-22T00:52:27;100609.50;;;18.25
82638;BMP280;72318;36.628;-121.932;2024-03-22T00:57:28;100600.91;;;18.17
82638;BMP280;72318;36.628;-121.932;2024-03-22T01:02:28;100437.81;;;17.72
82638;BMP280;72318;36.628;-121.932;2024-03-22T01:07:29;100309.88;;;17.84
82638;BMP280;72318;36.628;-121.932;2024-03-22T01:12:30;100047.69;;;16.75
82638;BMP280;72318;36.628;-121.932;2024-03-22T01:17:31;99959.94;;;17.16
82638;BMP280;72318;36.628;-121.932;2024-03-22T01:22:32;99897.56;;;16.94
82638;BMP280;72318;36.628;-121.932;2024-03-22T01:27:33;99853.31;;;17.02
82638;BMP280;72318;36.628;-121.932;2024-03-22T01:32:35;99802.16;;;16.88
82638;BMP280;72318;36.628;-121.932;2024-03-22T01:37:36;99788.28;;;16.80
82638;BMP280;72318;36.628;-121.932;2024-03-22T01:42:37;99745.41;;;16.93
82638;BMP280;72318;36.628;-121.932;2024-03-22T01:47:41;99704.22;;;16.47
82638;BMP280;72318;36.628;-121.932;2024-03-22T01:52:42;99688.66;;;16.55
82638;BMP280;72318;36.628;-121.932;2024-03-22T01:57:43;99646.97;;;16.45
82638;BMP280;72318;36.628;-121.932;2024-03-22T02:02:44;99606.41;;;16.04
82638;BMP280;72318;36.628;-121.932;2024-03-22T02:07:48;99545.88;;;15.88
82638;BMP280;72318;36.628;-121.932;2024-03-22T02:12:49;99520.06;;;15.94
82638;BMP280;72318;36.628;-121.932;2024-03-22T02:17:49;99502.22;;;15.70
82638;BMP280;72318;36.628;-121.932;2024-03-22T02:22:50;99471.91;;;15.42
82638;BMP280;72318;36.628;-121.932;2024-03-22T02:27:51;99445.34;;;15.26
82638;BMP280;72318;36.628;-121.932;2024-03-22T02:32:52;99376.44;;;15.13
82638;BMP280;72318;36.628;-121.932;2024-03-22T02:37:53;99356.81;;;15.07
82638;BMP280;72318;36.628;-121.932;2024-03-22T02:42:54;99300.38;;;14.74
82638;BMP280;72318;36.628;-121.932;2024-03-22T02:47:55;99256.78;;;14.90
82638;BMP280;72318;36.628;-121.932;2024-03-22T02:52:55;99258.63;;;15.02
82638;BMP280;72318;36.628;-121.932;2024-03-22T02:57:57;99269.91;;;14.63
82638;BMP280;72318;36.628;-121.932;2024-03-22T03:02:58;99237.72;;;14.79
82638;BMP280;72318;36.628;-121.932;2024-03-22T03:07:59;99193.34;;;14.85
82638;BMP280;72318;36.628;-121.932;2024-03-22T03:13:00;99185.88;;;15.01
82638;BMP280;72318;36.628;-121.932;2024-03-22T03:18:01;99184.31;;;15.13
82638;BMP280;72318;36.628;-121.932;2024-03-22T03:23:02;99165.03;;;15.18
82638;BMP280;72318;36.628;-121.932;2024-03-22T03:28:03;99175.94;;;15.32
82638;BMP280;72318;36.628;-121.932;2024-03-22T03:33:04;99159.03;;;15.26
82638;BMP280;72318;36.628;-121.932;2024-03-22T03:38:05;99156.81;;;15.33
82638;BMP280;72318;36.628;-121.932;2024-03-22T03:43:06;99152.78;;;15.29
82638;BMP280;72318;36.628;-121.932;2024-03-22T03:48:06;99175.56;;;14.91
82638;BMP280;72318;36.628;-121.932;2024-03-22T03:53:07;99168.75;;;14.90
82638;BMP280;72318;36.628;-121.932;2024-03-22T03:58:08;99170.81;;;14.86
82638;BMP280;72318;36.628;-121.932;2024-03-22T04:03:09;99194.31;;;14.78
82638;BMP280;72318;36.628;-121.932;2024-03-22T04:08:10;99168.28;;;15.13
82638;BMP280;72318;36.628;-121.932;2024-03-22T04:13:11;99186.66;;;15.11
82638;BMP280;72318;36.628;-121.932;2024-03-22T04:18:11;99135.25;;;15.19
82638;BMP280;72318;36.628;-121.932;2024-03-22T04:23:12;99132.97;;;15.00
82638;BMP280;72318;36.628;-121.932;2024-03-22T04:28:13;99106.44;;;15.05
82638;BMP280;72318;36.628;-121.932;2024-03-22T04:33:14;99108.78;;;14.73
82638;BMP280;72318;36.628;-121.932;2024-03-22T04:38:15;99111.44;;;14.73
82638;BMP280;72318;36.628;-121.932;2024-03-22T04:43:15;99100.69;;;14.55
82638;BMP280;72318;36.628;-121.932;2024-03-22T04:48:22;99110.84;;;14.69
82638;BMP280;72318;36.628;-121.932;2024-03-22T04:53:24;99111.06;;;14.53
82638;BMP280;72318;36.628;-121.932;2024-03-22T04:58:25;99111.13;;;14.40
82638;BMP280;72318;36.628;-121.932;2024-03-22T05:03:25;99097.72;;;14.31
82638;BMP280;72318;36.628;-121.932;2024-03-22T05:08:26;99100.50;;;14.49
82638;BMP280;72318;36.628;-121.932;2024-03-22T05:13:27;99103.06;;;14.53
82638;BMP280;72318;36.628;-121.932;2024-03-22T05:18:28;99114.13;;;14.51
82638;BMP280;72318;36.628;-121.932;2024-03-22T05:23:29;99131.00;;;14.27
82638;BMP280;72318;36.628;-121.932;2024-03-22T05:28:30;99142.00;;;14.29
82638;BMP280;72318;36.628;-121.932;2024-03-22T05:33:31;99119.84;;;14.20
82638;BMP280;72318;36.628;-121.932;2024-03-22T05:38:37;99094.16;;;14.26
82638;BMP280;72318;36.628;-121.932;2024-03-22T05:43:38;99068.03;;;14.42
82638;BMP280;72318;36.628;-121.932;2024-03-22T05:48:39;99099.09;;;14.57
82638;BMP280;72318;36.628;-121.932;2024-03-22T05:53:39;99061.81;;;14.45
82638;BMP280;72318;36.628;-121.932;2024-03-22T05:58:40;99043.19;;;14.75
82638;BMP280;72318;36.628;-121.932;2024-03-22T06:03:41;99021.38;;;14.68
82638;BMP280;72318;36.628;-121.932;2024-03-22T06:08:42;99015.84;;;14.53
82638;BMP280;72318;36.628;-121.932;2024-03-22T06:13:43;99009.44;;;14.51
82638;BMP280;72318;36.628;-121.932;2024-03-22T06:18:44;99018.97;;;14.61
82638;BMP280;72318;36.628;-121.932;2024-03-22T06:23:45;99024.47;;;14.36
82638;BMP280;72318;36.628;-121.932;2024-03-22T06:28:46;99034.78;;;14.25
82638;BMP280;72318;36.628;-121.932;2024-03-22T06:33:47;99020.31;;;14.35
82638;BMP280;72318;36.628;-121.932;2024-03-22T06:38:47;99030.22;;;14.26
82638;BMP280;72318;36.628;-121.932;2024-03-22T06:43:48;99031.03;;;14.23
82638;BMP280;72318;36.628;-121.932;2024-03-22T06:48:49;99031.97;;;14.28
82638;BMP280;72318;36.628;-121.932;2024-03-22T06:53:50;99050.41;;;14.14
82638;BMP280;72318;36.628;-121.932;2024-03-22T06:58:51;99049.16;;;14.06
82638;BMP280;72318;36.628;-121.932;2024-03-22T07:03:52;99031.31;;;14.16
82638;BMP280;72318;36.628;-121.932;2024-03-22T07:08:52;99012.47;;;14.10
82638;BMP280;72318;36.628;-121.932;2024-03-22T07:13:53;99003.66;;;14.22
82638;BMP280;72318;36.628;-121.932;2024-03-22T07:18:54;98999.41;;;14.03
82638;BMP280;72318;36.628;-121.932;2024-03-22T07:23:55;98970.03;;;14.16
82638;BMP280;72318;36.628;-121.932;2024-03-22T07:28:56;98973.84;;;14.06
82638;BMP280;72318;36.628;-121.932;2024-03-22T07:33:57;98972.22;;;14.08
82638;BMP280;72318;36.628;-121.932;2024-03-22T07:38:57;98963.25;;;13.93
82638;BMP280;72318;36.628;-121.932;2024-03-22T07:43:59;98945.56;;;13.87
82638;BMP280;72318;36.628;-121.932;2024-03-22T07:49:00;98917.09;;;13.96
82638;BMP280;72318;36.628;-121.932;2024-03-22T07:54:01;98900.22;;;13.99
82638;BMP280;72318;36.628;-121.932;2024-03-22T07:59:02;98917.63;;;13.91
82638;BMP280;72318;36.628;-121.932;2024-03-22T08:04:03;98919.56;;;13.91
82638;BMP280;72318;36.628;-121.932;2024-03-22T08:09:03;98937.78;;;13.71
82638;BMP280;72318;36.628;-121.932;2024-03-22T08:14:04;98917.72;;;13.79
82638;BMP280;72318;36.628;-121.932;2024-03-22T08:19:05;98929.50;;;13.69
82638;BMP280;72318;36.628;-121.932;2024-03-22T08:24:06;98931.22;;;13.63
82638;BMP280;72318;36.628;-121.932;2024-03-22T08:29:07;98926.38;;;13.70
82638;BMP280;72318;36.628;-121.932;2024-03-22T08:34:08;98962.13;;;13.48
82638;BMP280;72318;36.628;-121.932;2024-03-22T08:39:09;98957.81;;;13.41
82638;BMP280;72318;36.628;-121.932;2024-03-22T08:44:13;98986.13;;;13.35
82638;BMP280;72318;36.628;-121.932;2024-03-22T08:49:14;98984.97;;;13.36
82638;BMP280;72318;36.628;-121.932;2024-03-22T08:54:15;98999.19;;;13.42
82638;BMP280;72318;36.628;-121.932;2024-03-22T08:59:15;99004.59;;;13.51
82638;BMP280;72318;36.628;-121.932;2024-03-22T09:04:16;99041.22;;;13.60
82638;BMP280;72318;36.628;-121.932;2024-03-22T09:09:17;99067.25;;;13.19
82638;BMP280;72318;36.628;-121.932;2024-03-22T09:14:18;99017.69;;;13.92
82638;BMP280;72318;36.628;-121.932;2024-03-22T09:19:19;99058.00;;;13.23
82638;BMP280;72318;36.628;-121.932;2024-03-22T09:24:20;99025.06;;;13.76
82638;BMP280;72318;36.628;-121.932;2024-03-22T09:29:20;99053.47;;;13.57
82638;BMP280;72318;36.628;-121.932;2024-03-22T09:34:21;99038.59;;;13.47
82638;BMP280;72318;36.628;-121.932;2024-03-22T09:39:22;99038.31;;;13.21
82638;BMP280;72318;36.628;-121.932;2024-03-22T09:44:23;99027.66;;;13.21
82638;BMP280;72318;36.628;-121.932;2024-03-22T09:49:27;98964.41;;;13.37
82638;BMP280;72318;36.628;-121.932;2024-03-22T09:54:28;98928.38;;;13.57
82638;BMP280;72318;36.628;-121.932;2024-03-22T09:59:30;98942.66;;;13.51
82638;BMP280;72318;36.628;-121.932;2024-03-22T10:04:31;98876.19;;;13.38
82638;BMP280;72318;36.628;-121.932;2024-03-22T10:09:32;98835.63;;;13.77
82638;BMP280;72318;36.628;-121.932;2024-03-22T10:14:33;98814.25;;;13.90
82638;BMP280;72318;36.628;-121.932;2024-03-22T10:19:34;98839.25;;;13.40
82638;BMP280;72318;36.628;-121.932;2024-03-22T10:24:35;98822.97;;;13.38
82638;BMP280;72318;36.628;-121.932;2024-03-22T10:29:36;98804.41;;;13.26
82638;BMP280;72318;36.628;-121.932;2024-03-22T10:34:38;98800.09;;;13.20
82638;BMP280;72318;36.628;-121.932;2024-03-22T10:39:40;98806.91;;;13.21
82638;BMP280;72318;36.628;-121.932;2024-03-22T10:44:42;98816.47;;;13.18
82638;BMP280;72318;36.628;-121.932;2024-03-22T10:49:43;98783.94;;;13.35
82638;BMP280;72318;36.628;-121.932;2024-03-22T10:54:47;98808.81;;;13.20
82638;BMP280;72318;36.628;-121.932;2024-03-22T10:59:48;98826.69;;;12.86
82638;BMP280;72318;36.628;-121.932;2024-03-22T11:04:58;98784.31;;;13.25
82638;BMP280;72318;36.628;-121.932;2024-03-22T11:10:01;98804.34;;;12.96
82638;BMP280;72318;36.628;-121.932;2024-03-22T11:15:02;98796.00;;;12.85
82638;BMP280;72318;36.628;-121.932;2024-03-22T11:20:03;98785.88;;;12.80
82638;BMP280;72318;36.628;-121.932;2024-03-22T11:25:05;98768.78;;;12.81
82638;BMP280;72318;36.628;-121.932;2024-03-22T11:30:06;98761.19;;;12.92
82638;BMP280;72318;36.628;-121.932;2024-03-22T11:35:07;98757.84;;;13.22
82638;BMP280;72318;36.628;-121.932;2024-03-22T11:40:12;98757.56;;;13.50
82638;BMP280;72318;36.628;-121.932;2024-03-22T11:45:14;98774.78;;;13.36
82638;BMP280;72318;36.628;-121.932;2024-03-22T11:50:16;98791.34;;;13.19
82638;BMP280;72318;36.628;-121.932;2024-03-22T11:55:17;98768.19;;;13.20
82638;BMP280;72318;36.628;-121.932;2024-03-22T12:00:18;98747.06;;;13.25
82638;BMP280;72318;36.628;-121.932;2024-03-22T12:05:20;98752.03;;;13.14
82638;BMP280;72318;36.628;-121.932;2024-03-22T12:10:21;98759.69;;;13.12
82638;BMP280;72318;36.628;-121.932;2024-03-22T12:15:22;98767.56;;;13.16
82638;BMP280;72318;36.628;-121.932;2024-03-22T12:20:23;98777.53;;;13.03
82638;BMP280;72318;36.628;-121.932;2024-03-22T12:25:24;98797.88;;;12.84
82638;BMP280;72318;36.628;-121.932;2024-03-22T12:30:25;98809.78;;;12.80
82638;BMP280;72318;36.628;-121.932;2024-03-22T12:35:25;98792.34;;;12.79
82638;BMP280;72318;36.628;-121.932;2024-03-22T12:40:27;98783.69;;;13.00
82638;BMP280;72318;36.628;-121.932;2024-03-22T12:45:29;98784.72;;;12.81
82638;BMP280;72318;36.628;-121.932;2024-03-22T12:50:30;98808.69;;;12.68
82638;BMP280;72318;36.628;-121.932;2024-03-22T12:55:31;98790.59;;;12.76
82638;BMP280;72318;36.628;-121.932;2024-03-22T13:00:31;98789.97;;;12.59
82638;BMP280;72318;36.628;-121.932;2024-03-22T13:05:32;98794.75;;;12.64
82638;BMP280;72318;36.628;-121.932;2024-03-22T13:10:33;98786.25;;;12.69
82638;BMP280;72318;36.628;-121.932;2024-03-22T13:15:34;98786.25;;;12.69
82638;BMP280;72318;36.628;-121.932;2024-03-22T13:20:35;98783.19;;;12.46
82638;BMP280;72318;36.628;-121.932;2024-03-22T13:25:36;98786.94;;;12.48
82638;BMP280;72318;36.628;-121.932;2024-03-22T13:30:37;98769.91;;;12.58
82638;BMP280;72318;36.628;-121.932;2024-03-22T13:35:38;98794.78;;;12.52
82638;BMP280;72318;36.628;-121.932;2024-03-22T13:40:39;98813.16;;;12.46
82638;BMP280;72318;36.628;-121.932;2024-03-22T13:45:42;98801.91;;;12.55
82638;BMP280;72318;36.628;-121.932;2024-03-22T13:50:43;98827.09;;;12.25
82638;BMP280;72318;36.628;-121.932;2024-03-22T13:55:44;98847.59;;;12.13
82638;BMP280;72318;36.628;-121.932;2024-03-22T14:00:44;98844.09;;;12.16
82638;BMP280;72318;36.628;-121.932;2024-03-22T14:05:45;98842.53;;;12.30
82638;BMP280;72318;36.628;-121.932;2024-03-22T14:10:46;98856.75;;;12.24
82638;BMP280;72318;36.628;-121.932;2024-03-22T14:15:47;98866.72;;;12.20
82638;BMP280;72318;36.628;-121.932;2024-03-22T14:20:48;98829.31;;;12.52
82638;BMP280;72318;36.628;-121.932;2024-03-22T14:25:49;98822.72;;;12.56
82638;BMP280;72318;36.628;-121.932;2024-03-22T14:30:49;98820.41;;;12.58
82638;BMP280;72318;36.628;-121.932;2024-03-22T14:35:50;98836.00;;;12.56
82638;BMP280;72318;36.628;-121.932;2024-03-22T14:40:51;98833.75;;;12.67
82638;BMP280;72318;36.628;-121.932;2024-03-22T14:45:53;98857.88;;;12.60
82638;BMP280;72318;36.628;-121.932;2024-03-22T14:50:54;98877.25;;;12.48
82638;BMP280;72318;36.628;-121.932;2024-03-22T14:55:57;98884.38;;;12.51
82638;BMP280;72318;36.628;-121.932;2024-03-22T15:01:00;98834.19;;;12.66
82638;BMP280;72318;36.628;-121.932;2024-03-22T15:06:01;98828.66;;;12.60
82638;BMP280;72318;36.628;-121.932;2024-03-22T15:11:02;98798.13;;;12.99
82638;BMP280;72318;36.628;-121.932;2024-03-22T15:16:03;98790.47;;;12.79
82638;BMP280;72318;36.628;-121.932;2024-03-22T15:21:04;98747.06;;;13.25
82638;BMP280;72318;36.628;-121.932;2024-03-22T15:26:05;98709.03;;;13.76
82638;BMP280;72318;36.628;-121.932;2024-03-22T15:31:06;98670.81;;;14.19
82638;BMP280;72318;36.628;-121.932;2024-03-22T15:36:07;98636.28;;;14.60
82638;BMP280;72318;36.628;-121.932;2024-03-22T15:41:08;98609.31;;;14.67
82638;BMP280;72318;36.628;-121.932;2024-03-22T15:46:09;98558.97;;;15.01
82638;BMP280;72318;36.628;-121.932;2024-03-22T15:51:09;98591.06;;;15.16
82638;BMP280;72318;36.628;-121.932;2024-03-22T15:56:10;98667.44;;;15.04
82638;BMP280;72318;36.628;-121.932;2024-03-22T16:01:11;98708.97;;;14.69
82638;BMP280;72318;36.628;-121.932;2024-03-22T16:06:12;98683.84;;;14.52
82638;BMP280;72318;36.628;-121.932;2024-03-22T16:11:13;98714.78;;;14.59
82638;BMP280;72318;36.628;-121.932;2024-03-22T16:16:13;98758.47;;;14.70
82638;BMP280;72318;36.628;-121.932;2024-03-22T16:21:14;98826.28;;;14.60
82638;BMP280;72318;36.628;-121.932;2024-03-22T16:26:15;98832.69;;;15.08
82638;BMP280;72318;36.628;-121.932;2024-03-22T16:31:16;98883.78;;;15.06
82638;BMP280;72318;36.628;-121.932;2024-03-22T16:36:17;98826.28;;;15.82
82638;BMP280;72318;36.628;-121.932;2024-03-22T16:41:17;98859.69;;;15.78
82638;BMP280;72318;36.628;-121.932;2024-03-22T16:46:18;98842.69;;;15.99
82638;BMP280;72318;36.628;-121.932;2024-03-22T16:51:19;98949.78;;;15.77
82638;BMP280;72318;36.628;-121.932;2024-03-22T16:56:20;98975.75;;;15.86
82638;BMP280;72318;36.628;-121.932;2024-03-22T17:01:21;98982.06;;;16.15
82638;BMP280;72318;36.628;-121.932;2024-03-22T17:06:22;99022.09;;;16.42
82638;BMP280;72318;36.628;-121.932;2024-03-22T17:11:23;99068.94;;;16.70
82638;BMP280;72318;36.628;-121.932;2024-03-22T17:16:23;99094.47;;;16.80
82638;BMP280;72318;36.628;-121.932;2024-03-22T17:21:24;99180.69;;;16.48
82638;BMP280;72318;36.628;-121.932;2024-03-22T17:26:25;99233.13;;;16.90
82638;BMP280;72318;36.628;-121.932;2024-03-22T17:31:46;99275.72;;;17.29
82638;BMP280;72318;36.628;-121.932;2024-03-22T17:36:47;99299.75;;;17.47
82638;BMP280;72318;36.628;-121.932;2024-03-22T17:41:48;99257.19;;;17.82
82638;BMP280;72318;36.628;-121.932;2024-03-22T17:46:49;99294.56;;;18.32
82638;BMP280;72318;36.628;-121.932;2024-03-22T17:51:50;99379.91;;;17.78
82638;BMP280;72318;36.628;-121.932;2024-03-22T17:56:50;99395.88;;;18.37
82638;BMP280;72318;36.628;-121.932;2024-03-22T18:01:51;99455.31;;;18.03
82638;BMP280;72318;36.628;-121.932;2024-03-22T18:06:52;99428.38;;;18.62
82638;BMP280;72318;36.628;-121.932;2024-03-22T18:11:53;99547.53;;;20.01
82638;BMP280;72318;36.628;-121.932;2024-03-22T18:16:54;99777.69;;;19.05
82638;BMP280;72318;36.628;-121.932;2024-03-22T18:21:55;99733.66;;;20.14
82638;BMP280;72318;36.628;-121.932;2024-03-22T18:26:55;99775.16;;;20.36
82638;BMP280;72318;36.628;-121.932;2024-03-22T18:31:56;99807.25;;;21.70
82638;BMP280;72318;36.628;-121.932;2024-03-22T18:36:57;100177.69;;;22.28
82638;BMP280;72318;36.628;-121.932;2024-03-22T18:41:58;100371.22;;;21.61
82638;BMP280;72318;36.628;-121.932;2024-03-22T18:46:59;100306.84;;;21.03
82638;BMP280;72318;36.628;-121.932;2024-03-22T18:51:59;100369.38;;;21.67
82638;BMP280;72318;36.628;-121.932;2024-03-22T18:57:01;100271.13;;;22.92
82638;BMP280;72318;36.628;-121.932;2024-03-22T19:02:02;100450.16;;;23.24
82638;BMP280;72318;36.628;-121.932;2024-03-22T19:07:03;101168.53;;;21.35
82638;BMP280;72318;36.628;-121.932;2024-03-22T19:12:04;101251.19;;;22.30
82638;BMP280;72318;36.628;-121.932;2024-03-22T19:17:05;101302.84;;;21.65
82638;BMP280;72318;36.628;-121.932;2024-03-22T19:22:06;101363.28;;;23.11
82638;BMP280;72318;36.628;-121.932;2024-03-22T19:27:07;101357.34;;;23.64
82638;BMP280;72318;36.628;-121.932;2024-03-22T19:32:08;101375.38;;;24.42
82638;BMP280;72318;36.628;-121.932;2024-03-22T19:37:09;101317.06;;;22.45
82638;BMP280;72318;36.628;-121.932;2024-03-22T19:42:09;101293.09;;;23.08
82638;BMP280;72318;36.628;-121.932;2024-03-22T19:47:10;101342.22;;;21.62
82638;BMP280;72318;36.628;-121.932;2024-03-22T19:52:11;101340.44;;;23.12
82638;BMP280;72318;36.628;-121.932;2024-03-22T19:57:12;101309.53;;;22.40
82638;BMP280;72318;36.628;-121.932;2024-03-22T20:02:13;101338.19;;;23.41
82638;BMP280;72318;36.628;-121.932;2024-03-22T20:07:13;101342.97;;;22.76
82638;BMP280;72318;36.628;-121.932;2024-03-22T20:12:14;101322.19;;;22.43
82638;BMP280;72318;36.628;-121.932;2024-03-22T20:17:15;101297.56;;;22.29
82638;BMP280;72318;36.628;-121.932;2024-03-22T20:22:16;101256.06;;;20.68
82638;BMP280;72318;36.628;-121.932;2024-03-22T20:27:17;101287.41;;;21.99
82638;BMP280;72318;36.628;-121.932;2024-03-22T20:32:17;101257.91;;;21.71
82638;BMP280;72318;36.628;-121.932;2024-03-22T20:37:18;101287.03;;;23.34
